Westfield River @ Westfield, Ma

Westfield River at Westfield
 Total Drainage Area: 497 sq. miles 
 Drainage Area Controlled by Corps Dams: 214 sq. miles (43%) 
 Warning Flow/Stage: 4,000 cfs / 8.0 feet 
 Flood Flow/Stage: 11,700 cfs / 13.0 feet 
Date Time
(Eastern)
Stage
(ft)
Flow
(cfs)
CSM
May-28 11:30 am 4.13 433 .9
May-28 10:30 am 4.12 428 .9
May-28 09:30 am 4.09 414 .8
May-28 08:30 am 4.08 409 .8
May-28 07:30 am 4.06 400 .8
May-28 06:30 am 4.07 404 .8
May-28 05:30 am 4.09 414 .8
May-28 04:30 am 3.98 363 .7
May-28 03:30 am 3.81 291 .6
May-28 02:30 am 3.75 267 .5
May-28 01:30 am 3.75 267 .5
May-28 12:30 am 3.75 267 .5
May-27 11:30 pm 3.76 271 .5
May-27 10:30 pm 3.78 279 .6
May-27 09:30 pm 3.82 295 .6
May-27 08:30 pm 3.86 311 .6
May-27 07:30 pm 3.91 332 .7
May-27 06:30 pm 3.94 345 .7
May-27 05:30 pm 3.95 350 .7
May-27 04:30 pm 3.95 350 .7
May-27 03:30 pm 3.96 354 .7
May-27 02:30 pm 3.96 354 .7
May-27 01:30 pm 3.97 358 .7
May-27 12:30 pm 3.97 358 .7
May-27 11:30 am 3.98 363 .7
Report Generated May 28, 2022 03:49 pm